Time;durP1;ratioP1;P1;durP2;ratioP2;P2;SDS_P1;SDS_P2;PMS_P1;PMS_P2;Temp;Humidity;BMP_temperature;BMP_pressure;BME280_temperature;BME280_humidity;BME280_pressure;Samples;Min_cycle;Max_cycle;Signal;HPM_P1;HPM_P2
2022/04/01 00:02:04;;;;;;;4.40;4.10;;;;;;;;;;5041997;28;20062;-78
2022/04/01 00:04:32;;;;;;;3.55;3.30;;;;;;;;;;5066004;28;20045;-78
2022/04/01 00:06:59;;;;;;;3.85;3.60;;;;;;;;;;5053511;28;20054;-78
2022/04/01 00:09:27;;;;;;;4.65;3.97;;;;;;;;;;5042792;28;20500;-81
2022/04/01 00:11:54;;;;;;;5.38;4.10;;;;;;;;;;5038552;28;20049;-82
2022/04/01 00:14:21;;;;;;;4.15;3.85;;;;;;;;;;5055036;28;20119;-81
2022/04/01 00:16:49;;;;;;;4.63;4.22;;;;;;;;;;5073871;23;20131;-75
2022/04/01 00:19:16;;;;;;;4.65;4.30;;;;;;;;;;5105604;28;20044;-73
2022/04/01 00:21:44;;;;;;;4.65;4.25;;;;;;;;;;5094879;28;20383;-73
2022/04/01 00:24:11;;;;;;;5.82;4.45;;;;;;;;;;5087227;28;20561;-72
2022/04/01 00:26:39;;;;;;;5.05;4.43;;;;;;;;;;5101009;28;20065;-74
2022/04/01 00:29:15;;;;;;;3.83;3.53;;;;;;;;;;5103862;28;20408;-72
2022/04/01 00:31:43;;;;;;;4.88;4.50;;;;;;;;;;5105996;28;20047;-76
2022/04/01 00:34:17;;;;;;;4.50;4.13;;;;;;;;;;5071451;28;20050;-75
2022/04/01 00:36:48;;;;;;;4.18;3.88;;;;;;;;;;5076222;28;20105;-73
2022/04/01 00:39:16;;;;;;;4.90;4.50;;;;;;;;;;5095126;28;20127;-73
2022/04/01 00:41:45;;;;;;;4.70;4.35;;;;;;;;;;5100859;28;20032;-74
2022/04/01 00:44:16;;;;;;;4.80;4.40;;;;;;;;;;5086428;28;20491;-76
2022/04/01 00:46:43;;;;;;;4.53;4.10;;;;;;;;;;5077859;28;20044;-75
2022/04/01 00:49:11;;;;;;;4.40;4.10;;;;;;;;;;5101474;28;20534;-73
2022/04/01 00:51:41;;;;;;;6.45;4.50;;;;;;;;;;5099977;28;20136;-75
2022/04/01 00:54:09;;;;;;;4.63;4.22;;;;;;;;;;5093853;28;20052;-74
2022/04/01 00:56:37;;;;;;;5.40;4.43;;;;;;;;;;5095441;28;20042;-74
2022/04/01 00:59:05;;;;;;;4.20;3.90;;;;;;;;;;5100340;28;20040;-75
2022/04/01 01:01:34;;;;;;;5.20;4.80;;;;;;;;;;5077649;28;20036;-75
2022/04/01 01:04:02;;;;;;;4.53;4.13;;;;;;;;;;5087223;28;20044;-74
2022/04/01 01:06:31;;;;;;;4.43;4.05;;;;;;;;;;5090495;28;20051;-73
2022/04/01 01:08:59;;;;;;;4.40;3.97;;;;;;;;;;5094724;27;20036;-72
2022/04/01 01:11:27;;;;;;;4.47;4.07;;;;;;;;;;5091003;28;20127;-73
2022/04/01 01:13:55;;;;;;;5.20;4.53;;;;;;;;;;5084968;28;20110;-76
2022/04/01 01:16:22;;;;;;;3.05;2.85;;;;;;;;;;5077845;28;20044;-74
2022/04/01 01:19:20;;;;;;;3.25;3.05;;;;;;;;;;5107667;28;20072;-74
2022/04/01 01:21:50;;;;;;;4.18;3.38;;;;;;;;;;5073796;28;20136;-76
2022/04/01 01:24:18;;;;;;;3.47;3.28;;;;;;;;;;5069077;28;20047;-74
2022/04/01 01:26:50;;;;;;;3.08;2.83;;;;;;;;;;5063536;28;20043;-73
2022/04/01 01:29:19;;;;;;;3.38;3.17;;;;;;;;;;5092779;28;20577;-74
2022/04/01 01:31:46;;;;;;;4.28;3.95;;;;;;;;;;5100647;28;20096;-73
2022/04/01 01:34:13;;;;;;;3.47;3.28;;;;;;;;;;5107210;28;20039;-73
2022/04/01 01:36:41;;;;;;;3.70;3.40;;;;;;;;;;5088279;28;20503;-75
2022/04/01 01:39:08;;;;;;;4.25;3.55;;;;;;;;;;5104847;28;20071;-75
2022/04/01 01:41:36;;;;;;;3.50;3.25;;;;;;;;;;5086455;27;20537;-72
2022/04/01 01:44:04;;;;;;;4.32;3.33;;;;;;;;;;5105157;28;20036;-75
2022/04/01 01:46:31;;;;;;;3.97;3.78;;;;;;;;;;5094623;28;20046;-74
2022/04/01 01:48:59;;;;;;;4.05;3.40;;;;;;;;;;5069141;28;20553;-73
2022/04/01 01:57:07;;;;;;;2.47;2.38;;;;;;;;;;5070788;28;20040;-73
2022/04/01 01:59:36;;;;;;;2.60;2.15;;;;;;;;;;5069341;28;20051;-73
2022/04/01 02:02:05;;;;;;;2.40;2.30;;;;;;;;;;5080021;28;20420;-73
2022/04/01 02:04:34;;;;;;;3.00;2.70;;;;;;;;;;5104588;28;20059;-77
2022/04/01 02:07:02;;;;;;;2.60;2.50;;;;;;;;;;5077066;28;20302;-74
2022/04/01 02:09:30;;;;;;;2.97;2.78;;;;;;;;;;5073281;28;20131;-74
2022/04/01 02:11:57;;;;;;;2.50;2.40;;;;;;;;;;5070237;28;20039;-75
2022/04/01 02:14:26;;;;;;;2.63;2.50;;;;;;;;;;5075040;28;20567;-76
2022/04/01 02:16:54;;;;;;;2.45;2.35;;;;;;;;;;5090687;28;20043;-73
2022/04/01 02:19:21;;;;;;;3.22;3.00;;;;;;;;;;5072435;28;20040;-76
2022/04/01 02:21:50;;;;;;;2.30;2.10;;;;;;;;;;5090445;28;20074;-73
2022/04/01 02:24:17;;;;;;;2.80;2.60;;;;;;;;;;5073915;28;20051;-75
2022/04/01 02:26:47;;;;;;;2.38;2.28;;;;;;;;;;5078667;28;20051;-73
2022/04/01 02:29:18;;;;;;;2.22;2.13;;;;;;;;;;5072372;28;20139;-74
2022/04/01 02:32:06;;;;;;;2.67;2.50;;;;;;;;;;5089885;28;20036;-73
2022/04/01 02:34:53;;;;;;;2.92;2.72;;;;;;;;;;5090020;28;20040;-77
2022/04/01 02:37:25;;;;;;;3.53;3.28;;;;;;;;;;5082070;28;20032;-73
2022/04/01 02:39:55;;;;;;;3.08;2.88;;;;;;;;;;5075086;28;20055;-74
2022/04/01 02:42:25;;;;;;;2.70;2.47;;;;;;;;;;5072429;28;20491;-73
2022/04/01 02:44:52;;;;;;;2.40;2.30;;;;;;;;;;5092724;28;20043;-73
2022/04/01 02:47:20;;;;;;;2.50;2.40;;;;;;;;;;5076384;28;20569;-76
2022/04/01 02:49:48;;;;;;;2.70;2.55;;;;;;;;;;5072795;28;20064;-76
2022/04/01 02:52:15;;;;;;;2.58;2.20;;;;;;;;;;5092537;28;20047;-74
2022/04/01 02:54:43;;;;;;;1.98;1.88;;;;;;;;;;5078403;28;20039;-74
2022/04/01 02:57:11;;;;;;;2.20;2.10;;;;;;;;;;5077235;28;20417;-75
2022/04/01 02:59:40;;;;;;;2.10;2.00;;;;;;;;;;5086183;28;20035;-74
2022/04/01 03:02:09;;;;;;;2.00;1.90;;;;;;;;;;5084019;28;20074;-74
2022/04/01 03:04:36;;;;;;;2.30;2.20;;;;;;;;;;5081135;28;20039;-76
2022/04/01 03:07:04;;;;;;;2.20;2.10;;;;;;;;;;5064584;28;20044;-74
2022/04/01 03:09:33;;;;;;;1.95;1.85;;;;;;;;;;5079385;28;20047;-76
2022/04/01 03:12:21;;;;;;;1.88;1.77;;;;;;;;;;5071211;28;20131;-77
2022/04/01 03:14:49;;;;;;;2.20;2.10;;;;;;;;;;5099400;28;20097;-74
2022/04/01 03:17:37;;;;;;;2.08;1.88;;;;;;;;;;5103751;28;20101;-78
2022/04/01 03:20:20;;;;;;;2.10;2.00;;;;;;;;;;5091032;28;20039;-74
2022/04/01 03:22:50;;;;;;;2.17;2.00;;;;;;;;;;5081500;28;20039;-77
2022/04/01 03:25:22;;;;;;;1.98;1.88;;;;;;;;;;5071625;28;20170;-74
2022/04/01 03:28:10;;;;;;;1.70;1.60;;;;;;;;;;5073928;28;20056;-77
2022/04/01 03:30:38;;;;;;;1.65;1.55;;;;;;;;;;5075690;28;20495;-75
2022/04/01 03:33:06;;;;;;;2.15;2.05;;;;;;;;;;5086785;28;20053;-76
2022/04/01 03:35:33;;;;;;;1.77;1.73;;;;;;;;;;5103444;28;20644;-74
2022/04/01 03:38:01;;;;;;;1.58;1.48;;;;;;;;;;5088174;28;20044;-77
2022/04/01 03:40:29;;;;;;;1.52;1.50;;;;;;;;;;5089101;28;20328;-77
2022/04/01 03:42:56;;;;;;;2.10;2.00;;;;;;;;;;5081539;28;20040;-74
2022/04/01 03:45:24;;;;;;;2.17;1.98;;;;;;;;;;5088212;28;20051;-74
2022/04/01 03:48:15;;;;;;;1.80;1.70;;;;;;;;;;5071784;28;20510;-77
2022/04/01 03:50:44;;;;;;;1.75;1.70;;;;;;;;;;5070625;28;20092;-76
2022/04/01 03:53:13;;;;;;;2.00;1.90;;;;;;;;;;5081778;28;20043;-75
2022/04/01 03:55:44;;;;;;;2.72;2.08;;;;;;;;;;5082657;28;20045;-74
2022/04/01 03:58:47;;;;;;;2.80;2.60;;;;;;;;;;5053140;28;20047;-75
2022/04/01 04:01:46;;;;;;;2.20;2.10;;;;;;;;;;5099632;28;20118;-75
2022/04/01 04:04:15;;;;;;;2.30;2.20;;;;;;;;;;5080882;28;20051;-77
2022/04/01 04:06:43;;;;;;;1.95;1.85;;;;;;;;;;5068061;28;20046;-74
2022/04/01 04:09:12;;;;;;;2.58;2.47;;;;;;;;;;5103807;28;20245;-76
2022/04/01 04:11:40;;;;;;;2.80;2.70;;;;;;;;;;5079368;28;20040;-74
2022/04/01 04:14:26;;;;;;;2.67;2.47;;;;;;;;;;5086180;28;20499;-77
2022/04/01 04:16:56;;;;;;;2.33;2.22;;;;;;;;;;5087977;28;20036;-74
2022/04/01 04:19:24;;;;;;;2.70;2.50;;;;;;;;;;5087483;28;20035;-74
2022/04/01 04:22:11;;;;;;;2.60;2.50;;;;;;;;;;5082280;28;20047;-77
2022/04/01 04:24:49;;;;;;;1.75;1.75;;;;;;;;;;5086453;28;20452;-76
2022/04/01 04:27:18;;;;;;;2.85;2.67;;;;;;;;;;5085214;28;20357;-74
2022/04/01 04:29:49;;;;;;;2.78;2.65;;;;;;;;;;5087064;28;20066;-76
2022/04/01 04:32:53;;;;;;;2.33;2.13;;;;;;;;;;5069626;28;20075;-76
2022/04/01 04:35:26;;;;;;;1.92;1.83;;;;;;;;;;5087530;28;20413;-75
2022/04/01 04:37:56;;;;;;;2.63;2.53;;;;;;;;;;5083347;28;20039;-74
2022/04/01 04:40:25;;;;;;;2.85;2.65;;;;;;;;;;5069534;28;20044;-74
2022/04/01 04:43:11;;;;;;;3.05;2.75;;;;;;;;;;5083831;28;20535;-75
2022/04/01 04:45:38;;;;;;;2.90;2.70;;;;;;;;;;5086803;28;20039;-78
2022/04/01 04:48:07;;;;;;;2.78;2.58;;;;;;;;;;5088304;28;20485;-74
2022/04/01 04:50:37;;;;;;;2.72;2.63;;;;;;;;;;5084664;28;20046;-74
2022/04/01 04:53:04;;;;;;;3.30;3.10;;;;;;;;;;5085045;28;20054;-74
2022/04/01 04:55:34;;;;;;;3.67;3.38;;;;;;;;;;5087314;28;20380;-74
2022/04/01 04:58:08;;;;;;;2.92;2.75;;;;;;;;;;5088915;28;20510;-74
2022/04/01 05:00:43;;;;;;;4.07;3.38;;;;;;;;;;5072108;28;20043;-76
2022/04/01 05:03:20;;;;;;;4.18;3.78;;;;;;;;;;5066077;28;20083;-76
2022/04/01 05:05:56;;;;;;;5.40;3.53;;;;;;;;;;5083493;28;20035;-75
2022/04/01 05:08:24;;;;;;;4.55;4.25;;;;;;;;;;5091730;28;20510;-77
2022/04/01 05:11:26;;;;;;;3.85;3.65;;;;;;;;;;5097365;28;20054;-73
2022/04/01 05:14:13;;;;;;;3.53;3.33;;;;;;;;;;5079794;28;20048;-74
2022/04/01 05:16:49;;;;;;;4.32;3.97;;;;;;;;;;5033476;28;20083;-75
2022/04/01 05:19:20;;;;;;;2.97;2.80;;;;;;;;;;5071834;28;20036;-77
2022/04/01 05:22:00;;;;;;;2.78;2.58;;;;;;;;;;5078620;28;20218;-74
2022/04/01 05:24:52;;;;;;;2.90;2.80;;;;;;;;;;5063705;28;20043;-77
2022/04/01 05:27:24;;;;;;;5.07;3.80;;;;;;;;;;5073056;28;20052;-76
2022/04/01 05:30:13;;;;;;;4.15;3.45;;;;;;;;;;5081498;28;20043;-75
2022/04/01 05:32:59;;;;;;;3.17;2.97;;;;;;;;;;5084082;28;20169;-74
2022/04/01 05:35:29;;;;;;;3.35;3.15;;;;;;;;;;5068624;28;20131;-76
2022/04/01 05:37:58;;;;;;;3.20;2.90;;;;;;;;;;5086533;28;20117;-74
2022/04/01 05:40:27;;;;;;;3.25;3.05;;;;;;;;;;5086685;28;20043;-76
2022/04/01 05:42:58;;;;;;;4.70;4.30;;;;;;;;;;5084007;28;20062;-74
2022/04/01 05:45:44;;;;;;;3.15;2.95;;;;;;;;;;5099105;28;20066;-75
2022/04/01 05:48:14;;;;;;;3.45;3.25;;;;;;;;;;5084094;28;20035;-73
2022/04/01 05:50:43;;;;;;;2.97;2.42;;;;;;;;;;5068408;28;20044;-76
2022/04/01 05:53:11;;;;;;;3.40;3.20;;;;;;;;;;5089057;28;20242;-74
2022/04/01 05:55:46;;;;;;;3.38;3.17;;;;;;;;;;5089804;28;20040;-73
2022/04/01 05:58:14;;;;;;;3.72;3.40;;;;;;;;;;5086190;28;20546;-73
2022/04/01 06:00:52;;;;;;;3.70;3.50;;;;;;;;;;5081361;28;20457;-74
2022/04/01 06:03:31;;;;;;;6.05;4.82;;;;;;;;;;5077600;28;20032;-75
2022/04/01 06:06:02;;;;;;;7.03;5.20;;;;;;;;;;5064922;28;20048;-74
2022/04/01 06:08:57;;;;;;;3.47;3.28;;;;;;;;;;5088829;28;20043;-76
2022/04/01 06:11:47;;;;;;;4.68;2.97;;;;;;;;;;5098873;28;20039;-74
2022/04/01 06:15:11;;;;;;;3.88;3.58;;;;;;;;;;5039071;28;20547;-76
2022/04/01 06:18:07;;;;;;;3.08;2.88;;;;;;;;;;5084706;22;20514;-77
2022/04/01 06:20:40;;;;;;;4.25;3.95;;;;;;;;;;5066044;28;20032;-81
2022/04/01 06:23:29;;;;;;;4.78;4.38;;;;;;;;;;5035673;28;20044;-78
2022/04/01 06:26:02;;;;;;;2.80;2.65;;;;;;;;;;5023609;28;20097;-78
2022/04/01 06:28:39;;;;;;;3.35;3.15;;;;;;;;;;5033825;28;20055;-80
2022/04/01 06:31:13;;;;;;;5.15;3.70;;;;;;;;;;5032920;28;20136;-82
2022/04/01 06:34:00;;;;;;;4.35;3.53;;;;;;;;;;5020437;28;20041;-79
2022/04/01 06:36:54;;;;;;;4.38;4.07;;;;;;;;;;5023030;28;20037;-77
2022/04/01 06:39:34;;;;;;;6.07;4.30;;;;;;;;;;5048399;28;20037;-79
2022/04/01 06:42:02;;;;;;;4.40;4.00;;;;;;;;;;5022755;28;20049;-80
2022/04/01 06:45:04;;;;;;;;;;;;;;;;;;5043602;28;20047;-77
2022/04/01 06:47:50;;;;;;;4.88;4.47;;;;;;;;;;5052714;28;19924;-78
2022/04/01 06:50:17;;;;;;;2.83;2.65;;;;;;;;;;5027232;28;20037;-80
2022/04/01 06:52:56;;;;;;;3.28;3.08;;;;;;;;;;5060072;28;20115;-80
2022/04/01 06:55:44;;;;;;;4.97;4.57;;;;;;;;;;5036773;28;20457;-81
2022/04/01 06:58:30;;;;;;;5.45;5.05;;;;;;;;;;5038131;28;20098;-81
2022/04/01 07:00:58;;;;;;;4.45;4.15;;;;;;;;;;5038312;28;20041;-77
2022/04/01 07:03:33;;;;;;;4.28;3.88;;;;;;;;;;5034363;28;20113;-81
2022/04/01 07:06:02;;;;;;;4.57;4.22;;;;;;;;;;5034650;28;20098;-76
2022/04/01 07:08:44;;;;;;;4.22;3.92;;;;;;;;;;5033360;28;20036;-78
2022/04/01 07:11:11;;;;;;;5.15;4.65;;;;;;;;;;5044717;28;20036;-78
2022/04/01 07:13:39;;;;;;;4.97;4.57;;;;;;;;;;5052432;28;20036;-76
2022/04/01 07:16:12;;;;;;;8.55;5.70;;;;;;;;;;5035201;28;20071;-80
2022/04/01 07:18:45;;;;;;;5.82;5.20;;;;;;;;;;5053508;28;20048;-80
2022/04/01 07:21:15;;;;;;;5.18;4.78;;;;;;;;;;5051195;28;20045;-81
2022/04/01 07:23:43;;;;;;;6.03;5.43;;;;;;;;;;5034229;28;20061;-80
2022/04/01 07:26:13;;;;;;;5.65;5.15;;;;;;;;;;5048969;28;20116;-79
2022/04/01 07:28:40;;;;;;;4.13;3.70;;;;;;;;;;5053363;28;20075;-80
2022/04/01 07:34:26;;;;;;;5.10;4.70;;;;;;;;;;5032082;28;20963;-81
2022/04/01 07:36:59;;;;;;;5.35;4.85;;;;;;;;;;5053250;28;20389;-78
2022/04/01 07:39:26;;;;;;;5.28;4.85;;;;;;;;;;5022116;28;20045;-82
2022/04/01 07:41:54;;;;;;;4.72;4.28;;;;;;;;;;5021340;28;20054;-81
2022/04/01 07:44:28;;;;;;;4.45;4.05;;;;;;;;;;5051665;28;20060;-80
2022/04/01 07:46:59;;;;;;;6.50;5.80;;;;;;;;;;5052007;28;20052;-82
2022/04/01 07:49:26;;;;;;;6.38;4.85;;;;;;;;;;5037776;28;20500;-82
2022/04/01 07:52:18;;;;;;;4.97;4.57;;;;;;;;;;5033862;28;20743;-78
2022/04/01 07:54:52;;;;;;;5.00;4.60;;;;;;;;;;5052553;28;20076;-82
2022/04/01 07:57:20;;;;;;;6.07;5.47;;;;;;;;;;5045913;28;20114;-80
2022/04/01 07:59:50;;;;;;;5.88;5.38;;;;;;;;;;5033012;28;20033;-82
2022/04/01 08:02:22;;;;;;;8.23;6.75;;;;;;;;;;5049807;28;20108;-82
2022/04/01 08:04:55;;;;;;;6.25;5.75;;;;;;;;;;5037120;28;20102;-80
2022/04/01 08:07:24;;;;;;;5.53;4.53;;;;;;;;;;5031817;28;20140;-79
2022/04/01 08:09:54;;;;;;;5.38;4.88;;;;;;;;;;5019299;28;20044;-82
2022/04/01 08:12:22;;;;;;;4.40;4.10;;;;;;;;;;5029714;28;20135;-80
2022/04/01 08:14:49;;;;;;;4.82;4.43;;;;;;;;;;5036065;28;20420;-80
2022/04/01 08:17:17;;;;;;;5.68;5.18;;;;;;;;;;5032745;28;20575;-78
2022/04/01 08:19:51;;;;;;;6.25;5.68;;;;;;;;;;5033562;28;20072;-80
2022/04/01 08:22:19;;;;;;;5.93;5.43;;;;;;;;;;5033261;28;20041;-77
2022/04/01 08:24:49;;;;;;;4.28;3.97;;;;;;;;;;5051853;28;20044;-80
2022/04/01 08:27:16;;;;;;;4.00;3.70;;;;;;;;;;5033032;28;20067;-80
2022/04/01 08:29:44;;;;;;;5.60;5.10;;;;;;;;;;5032613;28;20124;-77
2022/04/01 08:32:54;;;;;;;4.43;4.07;;;;;;;;;;5011476;28;20041;-81
2022/04/01 08:35:22;;;;;;;5.10;4.70;;;;;;;;;;5035486;28;20063;-76
2022/04/01 08:37:49;;;;;;;8.07;5.63;;;;;;;;;;5049903;28;20409;-81
2022/04/01 08:40:24;;;;;;;6.47;5.50;;;;;;;;;;5032315;28;20444;-79
2022/04/01 08:42:54;;;;;;;6.10;5.50;;;;;;;;;;5049234;28;20343;-79
2022/04/01 08:45:24;;;;;;;6.28;5.07;;;;;;;;;;5042180;28;20037;-81
2022/04/01 08:47:52;;;;;;;6.00;5.50;;;;;;;;;;5027801;28;20454;-82
2022/04/01 08:50:20;;;;;;;6.22;5.65;;;;;;;;;;5049866;28;20068;-77
2022/04/01 08:52:47;;;;;;;6.13;5.53;;;;;;;;;;5036690;28;20029;-79
2022/04/01 08:55:20;;;;;;;6.30;5.72;;;;;;;;;;5054707;28;20060;-77
2022/04/01 08:57:51;;;;;;;5.30;4.65;;;;;;;;;;5063944;28;20098;-77
2022/04/01 09:00:25;;;;;;;5.00;4.50;;;;;;;;;;5039695;28;20045;-77
2022/04/01 09:03:03;;;;;;;4.57;4.18;;;;;;;;;;5043531;28;20049;-75
2022/04/01 09:05:31;;;;;;;4.68;4.22;;;;;;;;;;5049463;28;20106;-80
2022/04/01 09:08:02;;;;;;;4.47;4.03;;;;;;;;;;5035056;28;20051;-76
2022/04/01 09:10:35;;;;;;;4.28;3.88;;;;;;;;;;5020707;28;20053;-76
2022/04/01 09:13:07;;;;;;;3.80;3.50;;;;;;;;;;5059502;28;20067;-78
2022/04/01 09:15:45;;;;;;;4.15;3.85;;;;;;;;;;5040069;28;20509;-77
2022/04/01 09:18:12;;;;;;;4.25;3.95;;;;;;;;;;5032610;28;20500;-80
2022/04/01 09:20:51;;;;;;;4.32;4.03;;;;;;;;;;5033482;28;20048;-82
2022/04/01 09:23:22;;;;;;;4.15;3.80;;;;;;;;;;5049392;28;20872;-78
2022/04/01 09:25:50;;;;;;;;;;;;;;;;;;5028660;28;20610;-82
2022/04/01 09:28:27;;;;;;;3.20;3.00;;;;;;;;;;5029865;28;19936;-77
2022/04/01 09:30:57;;;;;;;4.55;3.70;;;;;;;;;;5048634;28;20490;-80
2022/04/01 09:33:28;;;;;;;3.55;3.35;;;;;;;;;;5032017;28;20575;-76
2022/04/01 09:36:02;;;;;;;4.85;4.13;;;;;;;;;;5015272;28;20044;-77
2022/04/01 09:38:29;;;;;;;4.00;3.60;;;;;;;;;;5029045;28;20049;-79
2022/04/01 09:41:02;;;;;;;4.88;4.40;;;;;;;;;;5028775;28;20037;-79
2022/04/01 09:43:32;;;;;;;4.15;3.30;;;;;;;;;;5029023;28;20056;-78
2022/04/01 09:46:03;;;;;;;6.97;3.80;;;;;;;;;;4996165;28;20105;-78
2022/04/01 09:48:39;;;;;;;4.47;3.83;;;;;;;;;;4997935;28;20075;-79
2022/04/01 09:51:09;;;;;;;5.10;4.65;;;;;;;;;;5015921;28;20045;-79
2022/04/01 09:53:37;;;;;;;7.65;4.80;;;;;;;;;;5032563;28;20131;-80
2022/04/01 09:56:04;;;;;;;4.95;4.45;;;;;;;;;;5035250;28;20045;-79
2022/04/01 09:58:33;;;;;;;5.80;5.30;;;;;;;;;;5000277;28;20048;-78
2022/04/01 10:01:03;;;;;;;5.22;4.80;;;;;;;;;;5016567;28;20117;-81
2022/04/01 10:03:37;;;;;;;6.60;4.68;;;;;;;;;;5048650;28;20044;-79
2022/04/01 10:06:07;;;;;;;4.90;4.50;;;;;;;;;;5014155;28;20048;-78
2022/04/01 10:08:35;;;;;;;4.90;4.50;;;;;;;;;;5024806;28;20040;-78
2022/04/01 10:11:03;;;;;;;5.68;4.90;;;;;;;;;;5017220;28;20049;-79
2022/04/01 10:13:31;;;;;;;5.95;5.35;;;;;;;;;;5050989;28;20044;-78
2022/04/01 10:15:59;;;;;;;5.07;4.68;;;;;;;;;;5051481;28;20037;-78
2022/04/01 10:18:47;;;;;;;5.32;4.82;;;;;;;;;;5012905;28;20045;-82
2022/04/01 10:21:19;;;;;;;5.40;4.90;;;;;;;;;;5002091;28;20094;-80
2022/04/01 10:24:09;;;;;;;5.13;4.65;;;;;;;;;;5036483;28;20049;-80
2022/04/01 10:26:41;;;;;;;5.70;5.20;;;;;;;;;;5052764;28;20043;-81
2022/04/01 10:29:09;;;;;;;5.80;5.05;;;;;;;;;;5035149;28;20132;-81
2022/04/01 10:31:37;;;;;;;5.32;4.93;;;;;;;;;;5004393;28;20052;-81
2022/04/01 10:34:24;;;;;;;6.45;5.80;;;;;;;;;;5035682;28;20052;-80
2022/04/01 10:37:00;;;;;;;5.22;4.75;;;;;;;;;;5034436;28;20151;-79
2022/04/01 10:39:28;;;;;;;5.45;4.50;;;;;;;;;;5027713;28;20045;-79
2022/04/01 10:42:06;;;;;;;4.60;4.20;;;;;;;;;;5025291;28;20118;-81
2022/04/01 10:44:47;;;;;;;4.85;4.45;;;;;;;;;;5054732;28;20120;-82
2022/04/01 10:47:21;;;;;;;6.45;5.90;;;;;;;;;;5034809;28;20036;-80
2022/04/01 10:52:35;;;;;;;5.55;5.05;;;;;;;;;;5051920;28;20076;-78
2022/04/01 10:55:08;;;;;;;4.60;4.20;;;;;;;;;;5053197;28;20063;-82
2022/04/01 10:57:43;;;;;;;5.07;4.68;;;;;;;;;;5037707;28;20045;-77
2022/04/01 11:00:15;;;;;;;4.78;4.38;;;;;;;;;;5051403;28;20499;-77
2022/04/01 11:02:45;;;;;;;4.50;4.10;;;;;;;;;;5029745;28;20041;-77
2022/04/01 11:05:45;;;;;;;6.43;5.82;;;;;;;;;;5025894;28;20047;-80
2022/04/01 11:08:16;;;;;;;6.25;4.85;;;;;;;;;;5016848;28;20512;-80
2022/04/01 11:11:03;;;;;;;4.57;4.23;;;;;;;;;;5015751;28;20081;-77
2022/04/01 11:13:30;;;;;;;4.28;3.97;;;;;;;;;;5013924;28;20451;-77
2022/04/01 11:16:13;;;;;;;4.65;4.35;;;;;;;;;;5028324;28;20053;-81
2022/04/01 11:18:59;;;;;;;5.55;4.82;;;;;;;;;;5047981;28;20037;-78
2022/04/01 11:21:30;;;;;;;6.00;5.40;;;;;;;;;;5064363;28;20592;-78
2022/04/01 11:24:04;;;;;;;5.35;4.95;;;;;;;;;;5051404;28;20149;-80
2022/04/01 11:26:41;;;;;;;5.20;4.80;;;;;;;;;;5049222;28;20049;-80
2022/04/01 11:29:27;;;;;;;6.82;4.22;;;;;;;;;;5046265;28;20068;-77
2022/04/01 11:32:02;;;;;;;4.65;4.32;;;;;;;;;;5036723;28;20099;-80
2022/04/01 11:34:29;;;;;;;7.57;5.30;;;;;;;;;;5056675;28;20076;-77
2022/04/01 11:37:01;;;;;;;5.35;4.95;;;;;;;;;;5040243;28;20087;-78
2022/04/01 11:39:29;;;;;;;;;;;;;;;;;;5051423;28;20041;-80
2022/04/01 11:41:59;;;;;;;4.60;4.20;;;;;;;;;;5040089;28;19925;-79
2022/04/01 11:44:27;;;;;;;5.28;4.60;;;;;;;;;;5063424;28;20036;-78
2022/04/01 11:46:55;;;;;;;7.95;7.25;;;;;;;;;;5061788;28;20059;-77
2022/04/01 11:49:26;;;;;;;5.10;4.80;;;;;;;;;;5032242;28;20048;-78
2022/04/01 11:51:54;;;;;;;5.20;4.80;;;;;;;;;;5058815;28;20489;-80
2022/04/01 11:54:21;;;;;;;5.70;5.20;;;;;;;;;;5054426;28;20563;-80
2022/04/01 11:56:53;;;;;;;4.20;3.90;;;;;;;;;;5021692;28;20143;-79
2022/04/01 11:59:20;;;;;;;4.45;4.15;;;;;;;;;;5037238;28;20079;-79
2022/04/01 12:01:58;;;;;;;4.38;3.83;;;;;;;;;;5051595;28;20083;-78
2022/04/01 12:04:32;;;;;;;3.72;3.42;;;;;;;;;;5035208;28;20037;-81
2022/04/01 12:09:47;;;;;;;3.78;3.58;;;;;;;;;;5057690;28;20115;-77
2022/04/01 12:12:21;;;;;;;3.25;3.05;;;;;;;;;;5041634;28;20383;-80
2022/04/01 12:14:49;;;;;;;3.15;2.92;;;;;;;;;;5028984;28;20107;-80
2022/04/01 12:17:17;;;;;;;3.30;3.10;;;;;;;;;;5063448;28;20044;-80
2022/04/01 12:19:44;;;;;;;2.75;2.65;;;;;;;;;;5023449;28;20041;-78
2022/04/01 12:22:14;;;;;;;3.35;3.15;;;;;;;;;;5027743;28;20574;-78
2022/04/01 12:24:42;;;;;;;3.13;2.92;;;;;;;;;;5028275;28;20052;-81
2022/04/01 12:27:09;;;;;;;3.22;3.03;;;;;;;;;;5068270;28;20040;-80
2022/04/01 12:29:37;;;;;;;2.58;2.35;;;;;;;;;;5039913;28;20449;-77
2022/04/01 12:32:07;;;;;;;2.78;2.58;;;;;;;;;;5016099;28;20041;-79
2022/04/01 12:34:34;;;;;;;3.10;2.90;;;;;;;;;;5032892;28;20084;-79
2022/04/01 12:37:03;;;;;;;4.35;2.60;;;;;;;;;;5057012;28;20040;-77
2022/04/01 12:39:32;;;;;;;2.70;2.60;;;;;;;;;;5023576;28;20520;-77
2022/04/01 12:42:10;;;;;;;3.05;2.80;;;;;;;;;;5052805;28;20094;-80
2022/04/01 12:44:41;;;;;;;3.22;3.03;;;;;;;;;;5047418;28;20041;-77
2022/04/01 12:47:09;;;;;;;3.22;3.03;;;;;;;;;;5005927;28;20045;-79
2022/04/01 12:49:41;;;;;;;3.13;2.90;;;;;;;;;;5028033;28;20065;-79
2022/04/01 12:52:16;;;;;;;2.92;2.72;;;;;;;;;;5043970;28;20074;-78
2022/04/01 12:54:53;;;;;;;2.20;2.10;;;;;;;;;;5044977;28;20049;-79
2022/04/01 12:57:21;;;;;;;2.90;2.70;;;;;;;;;;5009434;28;20586;-78
2022/04/01 12:59:49;;;;;;;3.85;3.30;;;;;;;;;;5025955;28;20068;-80
2022/04/01 13:02:21;;;;;;;3.08;2.88;;;;;;;;;;5046481;28;20425;-76
2022/04/01 13:04:50;;;;;;;6.13;5.65;;;;;;;;;;5054668;28;20041;-76
2022/04/01 13:07:19;;;;;;;3.17;2.97;;;;;;;;;;5030131;28;20045;-79
2022/04/01 13:09:52;;;;;;;2.97;2.78;;;;;;;;;;5044374;28;20745;-77
2022/04/01 13:12:21;;;;;;;3.30;3.10;;;;;;;;;;5049505;28;20052;-78
2022/04/01 13:15:00;;;;;;;3.50;3.30;;;;;;;;;;5043322;28;20045;-77
2022/04/01 13:17:27;;;;;;;3.20;2.92;;;;;;;;;;5013033;28;20136;-76
2022/04/01 13:20:32;;;;;;;3.00;2.78;;;;;;;;;;4954767;28;20043;-78
2022/04/01 13:23:03;;;;;;;3.20;2.92;;;;;;;;;;5054890;28;20041;-78
2022/04/01 13:25:31;;;;;;;3.42;3.22;;;;;;;;;;5026011;28;20071;-78
2022/04/01 13:27:59;;;;;;;3.05;2.85;;;;;;;;;;5028763;28;20057;-78
2022/04/01 13:30:33;;;;;;;2.70;2.60;;;;;;;;;;5029871;28;20157;-78
2022/04/01 13:33:04;;;;;;;3.07;2.87;;;;;;;;;;5046686;28;20084;-78
2022/04/01 13:35:31;;;;;;;3.15;2.90;;;;;;;;;;5005974;28;20763;-80
2022/04/01 13:37:59;;;;;;;3.30;3.08;;;;;;;;;;5042216;28;20113;-77
2022/04/01 13:40:26;;;;;;;3.90;3.70;;;;;;;;;;5042326;28;20041;-77
2022/04/01 13:42:59;;;;;;;3.55;3.25;;;;;;;;;;5041237;28;20045;-77
2022/04/01 13:45:27;;;;;;;3.40;3.20;;;;;;;;;;5048525;28;20045;-76
2022/04/01 13:47:56;;;;;;;2.80;2.70;;;;;;;;;;5028814;28;20057;-79
2022/04/01 13:50:24;;;;;;;4.65;3.30;;;;;;;;;;5042128;28;20512;-77
2022/04/01 13:52:52;;;;;;;3.60;3.30;;;;;;;;;;5026578;28;20059;-79
2022/04/01 13:55:19;;;;;;;3.95;3.33;;;;;;;;;;5028615;28;20049;-78
2022/04/01 13:57:47;;;;;;;3.67;3.47;;;;;;;;;;5059948;28;20051;-78
2022/04/01 14:00:14;;;;;;;3.85;3.65;;;;;;;;;;5042682;28;20102;-77
2022/04/01 14:02:44;;;;;;;3.83;3.53;;;;;;;;;;5041801;28;20096;-78
2022/04/01 14:05:11;;;;;;;4.00;3.70;;;;;;;;;;5040561;28;20084;-77
2022/04/01 14:07:39;;;;;;;3.70;3.40;;;;;;;;;;5020486;28;20149;-78
2022/04/01 14:10:06;;;;;;;3.90;3.70;;;;;;;;;;5033354;28;20068;-77
2022/04/01 14:12:35;;;;;;;4.13;3.83;;;;;;;;;;5016027;28;20043;-77
2022/04/01 14:15:03;;;;;;;4.97;4.50;;;;;;;;;;5017379;28;20048;-79
2022/04/01 14:17:33;;;;;;;4.70;4.32;;;;;;;;;;5022662;28;20392;-77
2022/04/01 14:20:03;;;;;;;7.03;3.83;;;;;;;;;;5044873;28;20064;-77
2022/04/01 14:22:31;;;;;;;4.35;4.05;;;;;;;;;;5029220;28;20487;-76
2022/04/01 14:24:58;;;;;;;4.72;4.32;;;;;;;;;;5043579;28;20068;-77
2022/04/01 14:27:26;;;;;;;4.20;3.90;;;;;;;;;;5049811;28;20080;-76
2022/04/01 14:32:39;;;;;;;5.07;4.68;;;;;;;;;;5036831;28;20136;-78
2022/04/01 14:35:07;;;;;;;5.13;4.72;;;;;;;;;;5017094;28;20045;-78
2022/04/01 14:37:58;;;;;;;5.35;4.95;;;;;;;;;;5025811;28;20069;-79
2022/04/01 14:40:26;;;;;;;5.60;5.20;;;;;;;;;;5038773;28;20151;-79
2022/04/01 14:42:54;;;;;;;6.75;6.15;;;;;;;;;;5021130;28;20540;-80
2022/04/01 14:45:22;;;;;;;5.72;5.22;;;;;;;;;;5017597;28;20081;-77
2022/04/01 14:47:49;;;;;;;6.20;5.70;;;;;;;;;;5014848;28;20106;-79
2022/04/01 14:50:17;;;;;;;6.38;5.80;;;;;;;;;;5032028;28;20045;-78
2022/04/01 14:52:44;;;;;;;6.88;6.38;;;;;;;;;;5016892;28;20552;-78
2022/04/01 14:55:12;;;;;;;6.25;5.75;;;;;;;;;;5030803;28;20424;-77
2022/04/01 14:57:40;;;;;;;6.40;5.80;;;;;;;;;;5032176;28;20061;-77
2022/04/01 15:00:08;;;;;;;9.73;8.82;;;;;;;;;;4997797;28;20120;-77
2022/04/01 15:02:47;;;;;;;;;;;;;;;;;;;;;
2022/04/01 15:05:40;;;;;;;7.85;7.22;;;;;;;;;;5015256;28;20041;-79
2022/04/01 15:08:08;;;;;;;9.85;8.95;;;;;;;;;;5022787;28;20228;-77
2022/04/01 15:10:35;;;;;;;7.50;6.90;;;;;;;;;;5023851;28;20041;-78
2022/04/01 15:13:03;;;;;;;7.30;6.70;;;;;;;;;;5038681;28;20102;-78
2022/04/01 15:15:30;;;;;;;6.30;5.80;;;;;;;;;;5019455;28;20345;-77
2022/04/01 15:17:58;;;;;;;7.50;6.82;;;;;;;;;;5040692;28;20045;-79
2022/04/01 15:20:29;;;;;;;8.25;7.55;;;;;;;;;;5021842;28;20153;-80
2022/04/01 15:22:56;;;;;;;8.23;7.47;;;;;;;;;;5035320;28;20539;-79
2022/04/01 15:25:24;;;;;;;6.70;6.18;;;;;;;;;;5031728;28;20045;-77
2022/04/01 15:27:51;;;;;;;6.50;5.90;;;;;;;;;;5034651;28;20049;-78
2022/04/01 15:30:19;;;;;;;7.78;7.07;;;;;;;;;;5027005;28;21065;-77
2022/04/01 15:32:46;;;;;;;8.52;7.72;;;;;;;;;;5032198;28;20098;-76
2022/04/01 15:35:14;;;;;;;8.60;7.80;;;;;;;;;;5023059;28;20049;-76